sensor_id;sensor_type;location;lat;lon;timestamp;P1;durP1;ratioP1;P2;durP2;ratioP2
85807;SDS011;76250;48.718;9.000;2024-03-22T00:02:17;8.17;;;7.37;;
85807;SDS011;76250;48.718;9.000;2024-03-22T00:04:44;8.50;;;7.70;;
85807;SDS011;76250;48.718;9.000;2024-03-22T00:07:11;8.10;;;7.40;;
85807;SDS011;76250;48.718;9.000;2024-03-22T00:09:37;7.63;;;6.93;;
85807;SDS011;76250;48.718;9.000;2024-03-22T00:12:04;7.30;;;6.70;;
85807;SDS011;76250;48.718;9.000;2024-03-22T00:14:32;8.13;;;7.37;;
85807;SDS011;76250;48.718;9.000;2024-03-22T00:16:59;7.43;;;6.77;;
85807;SDS011;76250;48.718;9.000;2024-03-22T00:19:25;7.27;;;6.57;;
85807;SDS011;76250;48.718;9.000;2024-03-22T00:21:52;7.43;;;6.83;;
85807;SDS011;76250;48.718;9.000;2024-03-22T00:24:19;7.10;;;6.50;;
85807;SDS011;76250;48.718;9.000;2024-03-22T00:26:45;7.53;;;6.83;;
85807;SDS011;76250;48.718;9.000;2024-03-22T00:29:15;7.33;;;6.63;;
85807;SDS011;76250;48.718;9.000;2024-03-22T00:31:42;6.93;;;6.33;;
85807;SDS011;76250;48.718;9.000;2024-03-22T00:34:08;6.80;;;6.20;;
85807;SDS011;76250;48.718;9.000;2024-03-22T00:36:35;6.17;;;5.63;;
85807;SDS011;76250;48.718;9.000;2024-03-22T00:39:02;7.27;;;6.67;;
85807;SDS011;76250;48.718;9.000;2024-03-22T00:41:29;6.97;;;6.33;;
85807;SDS011;76250;48.718;9.000;2024-03-22T00:43:56;7.30;;;6.53;;
85807;SDS011;76250;48.718;9.000;2024-03-22T00:46:24;6.87;;;6.27;;
85807;SDS011;76250;48.718;9.000;2024-03-22T00:48:51;6.80;;;6.20;;
85807;SDS011;76250;48.718;9.000;2024-03-22T00:51:17;6.87;;;6.37;;
85807;SDS011;76250;48.718;9.000;2024-03-22T00:53:44;6.87;;;6.27;;
85807;SDS011;76250;48.718;9.000;2024-03-22T00:56:11;6.83;;;6.23;;
85807;SDS011;76250;48.718;9.000;2024-03-22T00:58:38;6.50;;;5.90;;
85807;SDS011;76250;48.718;9.000;2024-03-22T01:01:04;7.03;;;6.43;;
85807;SDS011;76250;48.718;9.000;2024-03-22T01:03:31;7.20;;;6.50;;
85807;SDS011;76250;48.718;9.000;2024-03-22T01:05:58;6.27;;;5.77;;
85807;SDS011;76250;48.718;9.000;2024-03-22T01:08:25;6.77;;;6.17;;
85807;SDS011;76250;48.718;9.000;2024-03-22T01:10:52;6.40;;;5.90;;
85807;SDS011;76250;48.718;9.000;2024-03-22T01:13:19;6.80;;;6.20;;
85807;SDS011;76250;48.718;9.000;2024-03-22T01:15:46;6.33;;;5.73;;
85807;SDS011;76250;48.718;9.000;2024-03-22T01:18:13;7.27;;;6.67;;
85807;SDS011;76250;48.718;9.000;2024-03-22T01:20:40;7.13;;;6.40;;
85807;SDS011;76250;48.718;9.000;2024-03-22T01:23:08;7.20;;;6.60;;
85807;SDS011;76250;48.718;9.000;2024-03-22T01:25:35;6.87;;;6.27;;
85807;SDS011;76250;48.718;9.000;2024-03-22T01:28:02;6.63;;;6.07;;
85807;SDS011;76250;48.718;9.000;2024-03-22T01:30:30;7.60;;;6.80;;
85807;SDS011;76250;48.718;9.000;2024-03-22T01:32:57;7.13;;;6.53;;
85807;SDS011;76250;48.718;9.000;2024-03-22T01:35:23;7.70;;;6.90;;
85807;SDS011;76250;48.718;9.000;2024-03-22T01:37:50;6.93;;;6.23;;
85807;SDS011;76250;48.718;9.000;2024-03-22T01:40:17;6.40;;;5.90;;
85807;SDS011;76250;48.718;9.000;2024-03-22T01:42:44;7.07;;;6.47;;
85807;SDS011;76250;48.718;9.000;2024-03-22T01:45:11;6.87;;;6.27;;
85807;SDS011;76250;48.718;9.000;2024-03-22T01:47:41;6.13;;;5.60;;
85807;SDS011;76250;48.718;9.000;2024-03-22T01:50:08;6.23;;;5.73;;
85807;SDS011;76250;48.718;9.000;2024-03-22T01:52:36;6.37;;;5.87;;
85807;SDS011;76250;48.718;9.000;2024-03-22T01:55:03;6.87;;;6.17;;
85807;SDS011;76250;48.718;9.000;2024-03-22T01:57:32;6.13;;;5.63;;
85807;SDS011;76250;48.718;9.000;2024-03-22T02:00:00;6.67;;;6.07;;
85807;SDS011;76250;48.718;9.000;2024-03-22T02:02:27;7.20;;;6.50;;
85807;SDS011;76250;48.718;9.000;2024-03-22T02:04:53;7.50;;;6.80;;
85807;SDS011;76250;48.718;9.000;2024-03-22T02:07:20;6.47;;;5.87;;
85807;SDS011;76250;48.718;9.000;2024-03-22T02:09:47;7.20;;;6.50;;
85807;SDS011;76250;48.718;9.000;2024-03-22T02:12:14;6.60;;;6.00;;
85807;SDS011;76250;48.718;9.000;2024-03-22T02:14:42;6.87;;;6.27;;
85807;SDS011;76250;48.718;9.000;2024-03-22T02:17:09;6.77;;;6.17;;
85807;SDS011;76250;48.718;9.000;2024-03-22T02:22:42;6.00;;;5.50;;
85807;SDS011;76250;48.718;9.000;2024-03-22T02:25:09;6.37;;;5.87;;
85807;SDS011;76250;48.718;9.000;2024-03-22T02:27:36;6.03;;;5.53;;
85807;SDS011;76250;48.718;9.000;2024-03-22T02:30:05;6.90;;;6.20;;
85807;SDS011;76250;48.718;9.000;2024-03-22T02:32:32;6.80;;;6.17;;
85807;SDS011;76250;48.718;9.000;2024-03-22T02:34:59;6.80;;;6.20;;
85807;SDS011;76250;48.718;9.000;2024-03-22T02:37:26;6.17;;;5.67;;
85807;SDS011;76250;48.718;9.000;2024-03-22T02:39:54;6.67;;;6.07;;
85807;SDS011;76250;48.718;9.000;2024-03-22T02:42:21;7.13;;;6.43;;
85807;SDS011;76250;48.718;9.000;2024-03-22T02:44:48;6.00;;;5.50;;
85807;SDS011;76250;48.718;9.000;2024-03-22T02:47:15;6.63;;;6.03;;
85807;SDS011;76250;48.718;9.000;2024-03-22T02:49:43;6.13;;;5.63;;
85807;SDS011;76250;48.718;9.000;2024-03-22T02:52:10;6.43;;;5.83;;
85807;SDS011;76250;48.718;9.000;2024-03-22T02:54:37;7.10;;;6.50;;
85807;SDS011;76250;48.718;9.000;2024-03-22T02:57:06;7.30;;;6.60;;
85807;SDS011;76250;48.718;9.000;2024-03-22T02:59:33;6.67;;;6.07;;
85807;SDS011;76250;48.718;9.000;2024-03-22T03:02:00;7.53;;;6.37;;
85807;SDS011;76250;48.718;9.000;2024-03-22T03:04:27;7.53;;;6.83;;
85807;SDS011;76250;48.718;9.000;2024-03-22T03:06:54;7.70;;;7.00;;
85807;SDS011;76250;48.718;9.000;2024-03-22T03:09:22;7.13;;;6.43;;
85807;SDS011;76250;48.718;9.000;2024-03-22T03:11:48;7.23;;;6.63;;
85807;SDS011;76250;48.718;9.000;2024-03-22T03:14:15;7.17;;;6.60;;
85807;SDS011;76250;48.718;9.000;2024-03-22T03:16:42;7.73;;;7.03;;
85807;SDS011;76250;48.718;9.000;2024-03-22T03:19:09;7.27;;;6.57;;
85807;SDS011;76250;48.718;9.000;2024-03-22T03:21:36;7.33;;;6.73;;
85807;SDS011;76250;48.718;9.000;2024-03-22T03:24:03;7.03;;;6.40;;
85807;SDS011;76250;48.718;9.000;2024-03-22T03:26:30;6.20;;;5.67;;
85807;SDS011;76250;48.718;9.000;2024-03-22T03:28:57;7.03;;;6.40;;
85807;SDS011;76250;48.718;9.000;2024-03-22T03:31:24;6.60;;;5.77;;
85807;SDS011;76250;48.718;9.000;2024-03-22T03:33:51;7.07;;;6.47;;
85807;SDS011;76250;48.718;9.000;2024-03-22T03:36:18;6.37;;;5.83;;
85807;SDS011;76250;48.718;9.000;2024-03-22T03:38:45;6.70;;;6.10;;
85807;SDS011;76250;48.718;9.000;2024-03-22T03:41:11;6.60;;;6.03;;
85807;SDS011;76250;48.718;9.000;2024-03-22T03:43:38;6.27;;;5.70;;
85807;SDS011;76250;48.718;9.000;2024-03-22T03:46:05;5.67;;;5.17;;
85807;SDS011;76250;48.718;9.000;2024-03-22T03:48:32;5.80;;;5.30;;
85807;SDS011;76250;48.718;9.000;2024-03-22T03:50:59;6.03;;;5.53;;
85807;SDS011;76250;48.718;9.000;2024-03-22T03:53:29;6.10;;;5.60;;
85807;SDS011;76250;48.718;9.000;2024-03-22T03:55:56;5.87;;;5.37;;
85807;SDS011;76250;48.718;9.000;2024-03-22T03:58:23;7.87;;;6.53;;
85807;SDS011;76250;48.718;9.000;2024-03-22T04:00:50;6.53;;;5.80;;
85807;SDS011;76250;48.718;9.000;2024-03-22T04:03:17;6.57;;;5.97;;
85807;SDS011;76250;48.718;9.000;2024-03-22T04:05:43;7.03;;;6.33;;
85807;SDS011;76250;48.718;9.000;2024-03-22T04:08:22;6.17;;;5.67;;
85807;SDS011;76250;48.718;9.000;2024-03-22T04:10:51;6.97;;;6.30;;
85807;SDS011;76250;48.718;9.000;2024-03-22T04:13:27;6.23;;;5.63;;
85807;SDS011;76250;48.718;9.000;2024-03-22T04:15:57;6.43;;;5.80;;
85807;SDS011;76250;48.718;9.000;2024-03-22T04:18:25;6.07;;;5.57;;
85807;SDS011;76250;48.718;9.000;2024-03-22T04:20:56;5.93;;;5.43;;
85807;SDS011;76250;48.718;9.000;2024-03-22T04:23:25;6.30;;;5.80;;
85807;SDS011;76250;48.718;9.000;2024-03-22T04:25:56;5.83;;;5.33;;
85807;SDS011;76250;48.718;9.000;2024-03-22T04:28:27;6.27;;;5.70;;
85807;SDS011;76250;48.718;9.000;2024-03-22T04:30:59;6.27;;;5.70;;
85807;SDS011;76250;48.718;9.000;2024-03-22T04:33:27;5.60;;;5.13;;
85807;SDS011;76250;48.718;9.000;2024-03-22T04:35:55;5.40;;;5.00;;
85807;SDS011;76250;48.718;9.000;2024-03-22T04:38:23;6.07;;;5.47;;
85807;SDS011;76250;48.718;9.000;2024-03-22T04:40:51;6.00;;;5.50;;
85807;SDS011;76250;48.718;9.000;2024-03-22T04:43:20;6.10;;;5.57;;
85807;SDS011;76250;48.718;9.000;2024-03-22T04:45:48;6.50;;;5.80;;
85807;SDS011;76250;48.718;9.000;2024-03-22T04:48:24;6.37;;;5.77;;
85807;SDS011;76250;48.718;9.000;2024-03-22T04:50:52;6.43;;;5.83;;
85807;SDS011;76250;48.718;9.000;2024-03-22T04:53:20;6.20;;;5.70;;
85807;SDS011;76250;48.718;9.000;2024-03-22T04:55:47;5.80;;;5.30;;
85807;SDS011;76250;48.718;9.000;2024-03-22T04:58:15;6.00;;;5.50;;
85807;SDS011;76250;48.718;9.000;2024-03-22T05:00:45;6.53;;;5.97;;
85807;SDS011;76250;48.718;9.000;2024-03-22T05:03:13;6.67;;;6.07;;
85807;SDS011;76250;48.718;9.000;2024-03-22T05:05:40;5.73;;;5.23;;
85807;SDS011;76250;48.718;9.000;2024-03-22T05:08:07;6.00;;;5.47;;
85807;SDS011;76250;48.718;9.000;2024-03-22T05:10:35;5.83;;;5.33;;
85807;SDS011;76250;48.718;9.000;2024-03-22T05:13:02;6.10;;;5.53;;
85807;SDS011;76250;48.718;9.000;2024-03-22T05:15:29;6.27;;;5.67;;
85807;SDS011;76250;48.718;9.000;2024-03-22T05:17:57;6.97;;;6.27;;
85807;SDS011;76250;48.718;9.000;2024-03-22T05:20:25;6.77;;;6.07;;
85807;SDS011;76250;48.718;9.000;2024-03-22T05:22:52;6.27;;;5.77;;
85807;SDS011;76250;48.718;9.000;2024-03-22T05:25:19;5.93;;;5.43;;
85807;SDS011;76250;48.718;9.000;2024-03-22T05:27:46;6.03;;;5.53;;
85807;SDS011;76250;48.718;9.000;2024-03-22T05:30:13;6.23;;;5.73;;
85807;SDS011;76250;48.718;9.000;2024-03-22T05:32:40;6.03;;;5.57;;
85807;SDS011;76250;48.718;9.000;2024-03-22T05:35:08;5.93;;;5.43;;
85807;SDS011;76250;48.718;9.000;2024-03-22T05:37:35;6.03;;;5.53;;
85807;SDS011;76250;48.718;9.000;2024-03-22T05:40:02;5.30;;;4.90;;
85807;SDS011;76250;48.718;9.000;2024-03-22T05:42:30;5.90;;;5.40;;
85807;SDS011;76250;48.718;9.000;2024-03-22T05:44:57;6.33;;;5.83;;
85807;SDS011;76250;48.718;9.000;2024-03-22T05:47:24;5.77;;;5.27;;
85807;SDS011;76250;48.718;9.000;2024-03-22T05:49:51;5.93;;;5.43;;
85807;SDS011;76250;48.718;9.000;2024-03-22T05:52:18;6.37;;;5.77;;
85807;SDS011;76250;48.718;9.000;2024-03-22T05:54:45;5.33;;;4.93;;
85807;SDS011;76250;48.718;9.000;2024-03-22T05:57:13;5.80;;;5.30;;
85807;SDS011;76250;48.718;9.000;2024-03-22T05:59:39;5.90;;;5.40;;
85807;SDS011;76250;48.718;9.000;2024-03-22T06:02:07;5.77;;;5.27;;
85807;SDS011;76250;48.718;9.000;2024-03-22T06:04:34;5.70;;;5.20;;
85807;SDS011;76250;48.718;9.000;2024-03-22T06:07:02;5.77;;;5.27;;
85807;SDS011;76250;48.718;9.000;2024-03-22T06:09:30;6.07;;;5.30;;
85807;SDS011;76250;48.718;9.000;2024-03-22T06:12:03;6.53;;;5.93;;
85807;SDS011;76250;48.718;9.000;2024-03-22T06:14:31;6.07;;;5.57;;
85807;SDS011;76250;48.718;9.000;2024-03-22T06:16:58;6.70;;;5.67;;
85807;SDS011;76250;48.718;9.000;2024-03-22T06:19:25;6.13;;;5.53;;
85807;SDS011;76250;48.718;9.000;2024-03-22T06:21:52;5.83;;;5.33;;
85807;SDS011;76250;48.718;9.000;2024-03-22T06:24:19;6.77;;;6.17;;
85807;SDS011;76250;48.718;9.000;2024-03-22T06:26:46;6.30;;;5.70;;
85807;SDS011;76250;48.718;9.000;2024-03-22T06:29:15;6.33;;;5.83;;
85807;SDS011;76250;48.718;9.000;2024-03-22T06:31:42;6.10;;;5.63;;
85807;SDS011;76250;48.718;9.000;2024-03-22T06:34:09;6.63;;;6.03;;
85807;SDS011;76250;48.718;9.000;2024-03-22T06:36:36;6.40;;;5.80;;
85807;SDS011;76250;48.718;9.000;2024-03-22T06:39:03;6.30;;;5.80;;
85807;SDS011;76250;48.718;9.000;2024-03-22T06:41:33;6.03;;;5.53;;
85807;SDS011;76250;48.718;9.000;2024-03-22T06:44:01;6.27;;;5.77;;
85807;SDS011;76250;48.718;9.000;2024-03-22T06:46:28;6.90;;;6.20;;
85807;SDS011;76250;48.718;9.000;2024-03-22T06:48:55;5.93;;;5.43;;
85807;SDS011;76250;48.718;9.000;2024-03-22T06:51:22;6.23;;;5.60;;
85807;SDS011;76250;48.718;9.000;2024-03-22T06:53:49;6.60;;;5.97;;
85807;SDS011;76250;48.718;9.000;2024-03-22T06:56:17;6.37;;;5.77;;
85807;SDS011;76250;48.718;9.000;2024-03-22T06:58:44;6.53;;;5.97;;
85807;SDS011;76250;48.718;9.000;2024-03-22T07:01:11;6.10;;;5.60;;
85807;SDS011;76250;48.718;9.000;2024-03-22T07:03:38;7.10;;;6.40;;
85807;SDS011;76250;48.718;9.000;2024-03-22T07:06:11;6.53;;;5.93;;
85807;SDS011;76250;48.718;9.000;2024-03-22T07:08:40;6.30;;;5.80;;
85807;SDS011;76250;48.718;9.000;2024-03-22T07:11:07;6.50;;;5.90;;
85807;SDS011;76250;48.718;9.000;2024-03-22T07:13:35;5.83;;;5.33;;
85807;SDS011;76250;48.718;9.000;2024-03-22T07:16:02;7.10;;;6.47;;
85807;SDS011;76250;48.718;9.000;2024-03-22T07:18:30;6.50;;;6.00;;
85807;SDS011;76250;48.718;9.000;2024-03-22T07:20:57;6.50;;;5.93;;
85807;SDS011;76250;48.718;9.000;2024-03-22T07:23:27;7.17;;;6.47;;
85807;SDS011;76250;48.718;9.000;2024-03-22T07:25:54;7.20;;;6.50;;
85807;SDS011;76250;48.718;9.000;2024-03-22T07:28:21;7.47;;;6.77;;
85807;SDS011;76250;48.718;9.000;2024-03-22T07:30:48;7.43;;;6.63;;
85807;SDS011;76250;48.718;9.000;2024-03-22T07:33:15;8.17;;;7.37;;
85807;SDS011;76250;48.718;9.000;2024-03-22T07:35:43;8.03;;;7.30;;
85807;SDS011;76250;48.718;9.000;2024-03-22T07:38:10;7.37;;;6.67;;
85807;SDS011;76250;48.718;9.000;2024-03-22T07:40:37;7.87;;;7.07;;
85807;SDS011;76250;48.718;9.000;2024-03-22T07:43:04;7.17;;;6.57;;
85807;SDS011;76250;48.718;9.000;2024-03-22T07:45:34;8.10;;;7.30;;
85807;SDS011;76250;48.718;9.000;2024-03-22T07:48:01;8.13;;;6.77;;
85807;SDS011;76250;48.718;9.000;2024-03-22T07:50:28;7.23;;;6.37;;
85807;SDS011;76250;48.718;9.000;2024-03-22T07:52:55;9.17;;;7.57;;
85807;SDS011;76250;48.718;9.000;2024-03-22T07:55:22;7.63;;;7.00;;
85807;SDS011;76250;48.718;9.000;2024-03-22T07:57:49;6.97;;;6.30;;
85807;SDS011;76250;48.718;9.000;2024-03-22T08:00:17;6.93;;;6.23;;
85807;SDS011;76250;48.718;9.000;2024-03-22T08:02:44;7.13;;;6.53;;
85807;SDS011;76250;48.718;9.000;2024-03-22T08:05:10;7.10;;;6.17;;
85807;SDS011;76250;48.718;9.000;2024-03-22T08:07:37;6.70;;;6.13;;
85807;SDS011;76250;48.718;9.000;2024-03-22T08:10:04;6.67;;;6.07;;
85807;SDS011;76250;48.718;9.000;2024-03-22T08:12:32;7.07;;;5.63;;
85807;SDS011;76250;48.718;9.000;2024-03-22T08:14:58;6.57;;;5.97;;
85807;SDS011;76250;48.718;9.000;2024-03-22T08:17:25;5.43;;;4.90;;
85807;SDS011;76250;48.718;9.000;2024-03-22T08:19:52;6.93;;;6.33;;
85807;SDS011;76250;48.718;9.000;2024-03-22T08:22:19;7.37;;;6.10;;
85807;SDS011;76250;48.718;9.000;2024-03-22T08:24:45;5.97;;;5.37;;
85807;SDS011;76250;48.718;9.000;2024-03-22T08:27:12;6.57;;;5.30;;
85807;SDS011;76250;48.718;9.000;2024-03-22T08:29:39;6.30;;;5.80;;
85807;SDS011;76250;48.718;9.000;2024-03-22T08:32:07;6.60;;;6.00;;
85807;SDS011;76250;48.718;9.000;2024-03-22T08:34:33;6.10;;;5.50;;
85807;SDS011;76250;48.718;9.000;2024-03-22T08:37:00;5.97;;;5.47;;
85807;SDS011;76250;48.718;9.000;2024-03-22T08:39:30;5.87;;;5.30;;
85807;SDS011;76250;48.718;9.000;2024-03-22T08:41:56;5.53;;;5.03;;
85807;SDS011;76250;48.718;9.000;2024-03-22T08:44:23;6.00;;;5.50;;
85807;SDS011;76250;48.718;9.000;2024-03-22T08:46:53;5.50;;;5.10;;
85807;SDS011;76250;48.718;9.000;2024-03-22T08:49:19;5.73;;;5.23;;
85807;SDS011;76250;48.718;9.000;2024-03-22T08:51:46;6.27;;;5.67;;
85807;SDS011;76250;48.718;9.000;2024-03-22T08:54:14;5.07;;;4.67;;
85807;SDS011;76250;48.718;9.000;2024-03-22T08:56:41;6.00;;;5.50;;
85807;SDS011;76250;48.718;9.000;2024-03-22T08:59:08;5.40;;;4.90;;
85807;SDS011;76250;48.718;9.000;2024-03-22T09:01:36;5.17;;;4.77;;
85807;SDS011;76250;48.718;9.000;2024-03-22T09:04:03;6.53;;;5.67;;
85807;SDS011;76250;48.718;9.000;2024-03-22T09:06:30;5.60;;;5.10;;
85807;SDS011;76250;48.718;9.000;2024-03-22T09:08:57;6.60;;;5.63;;
85807;SDS011;76250;48.718;9.000;2024-03-22T09:11:24;6.43;;;5.80;;
85807;SDS011;76250;48.718;9.000;2024-03-22T09:13:52;5.40;;;4.90;;
85807;SDS011;76250;48.718;9.000;2024-03-22T09:16:20;5.50;;;5.00;;
85807;SDS011;76250;48.718;9.000;2024-03-22T09:18:47;5.07;;;4.60;;
85807;SDS011;76250;48.718;9.000;2024-03-22T09:21:14;4.53;;;4.17;;
85807;SDS011;76250;48.718;9.000;2024-03-22T09:23:40;4.37;;;4.07;;
85807;SDS011;76250;48.718;9.000;2024-03-22T09:26:07;4.40;;;4.00;;
85807;SDS011;76250;48.718;9.000;2024-03-22T09:28:34;6.10;;;4.30;;
85807;SDS011;76250;48.718;9.000;2024-03-22T09:31:04;5.30;;;4.80;;
85807;SDS011;76250;48.718;9.000;2024-03-22T09:33:33;5.50;;;4.73;;
85807;SDS011;76250;48.718;9.000;2024-03-22T09:36:00;5.50;;;5.00;;
85807;SDS011;76250;48.718;9.000;2024-03-22T09:38:28;6.27;;;5.67;;
85807;SDS011;76250;48.718;9.000;2024-03-22T09:40:55;6.00;;;5.50;;
85807;SDS011;76250;48.718;9.000;2024-03-22T09:43:22;5.37;;;4.87;;
85807;SDS011;76250;48.718;9.000;2024-03-22T09:45:50;4.50;;;4.10;;
85807;SDS011;76250;48.718;9.000;2024-03-22T09:48:18;5.63;;;5.13;;
85807;SDS011;76250;48.718;9.000;2024-03-22T09:50:45;6.93;;;5.83;;
85807;SDS011;76250;48.718;9.000;2024-03-22T09:53:19;5.70;;;5.17;;
85807;SDS011;76250;48.718;9.000;2024-03-22T09:55:51;5.73;;;5.23;;
85807;SDS011;76250;48.718;9.000;2024-03-22T09:58:23;5.10;;;4.60;;
85807;SDS011;76250;48.718;9.000;2024-03-22T10:00:51;4.90;;;4.40;;
85807;SDS011;76250;48.718;9.000;2024-03-22T10:03:18;6.40;;;5.70;;
85807;SDS011;76250;48.718;9.000;2024-03-22T10:05:45;4.83;;;4.43;;
85807;SDS011;76250;48.718;9.000;2024-03-22T10:08:13;4.67;;;4.00;;
85807;SDS011;76250;48.718;9.000;2024-03-22T10:10:41;4.03;;;3.63;;
85807;SDS011;76250;48.718;9.000;2024-03-22T10:13:08;4.40;;;4.00;;
85807;SDS011;76250;48.718;9.000;2024-03-22T10:15:35;3.60;;;3.30;;
85807;SDS011;76250;48.718;9.000;2024-03-22T10:18:02;3.70;;;3.40;;
85807;SDS011;76250;48.718;9.000;2024-03-22T10:20:30;3.73;;;3.30;;
85807;SDS011;76250;48.718;9.000;2024-03-22T10:22:59;4.47;;;4.03;;
85807;SDS011;76250;48.718;9.000;2024-03-22T10:25:26;3.60;;;3.30;;
85807;SDS011;76250;48.718;9.000;2024-03-22T10:27:54;4.63;;;4.23;;
85807;SDS011;76250;48.718;9.000;2024-03-22T10:30:22;6.70;;;3.50;;
85807;SDS011;76250;48.718;9.000;2024-03-22T10:32:51;3.40;;;3.20;;
85807;SDS011;76250;48.718;9.000;2024-03-22T10:35:18;3.63;;;3.33;;
85807;SDS011;76250;48.718;9.000;2024-03-22T10:37:45;3.00;;;2.80;;
85807;SDS011;76250;48.718;9.000;2024-03-22T10:40:12;4.73;;;3.40;;
85807;SDS011;76250;48.718;9.000;2024-03-22T10:42:40;3.83;;;3.53;;
85807;SDS011;76250;48.718;9.000;2024-03-22T10:45:08;4.23;;;3.83;;
85807;SDS011;76250;48.718;9.000;2024-03-22T10:47:37;4.13;;;3.73;;
85807;SDS011;76250;48.718;9.000;2024-03-22T10:50:05;3.60;;;2.90;;
85807;SDS011;76250;48.718;9.000;2024-03-22T10:52:38;3.03;;;2.83;;
85807;SDS011;76250;48.718;9.000;2024-03-22T10:57:57;3.10;;;2.90;;
85807;SDS011;76250;48.718;9.000;2024-03-22T11:00:27;3.27;;;3.00;;
85807;SDS011;76250;48.718;9.000;2024-03-22T11:03:01;4.50;;;4.10;;
85807;SDS011;76250;48.718;9.000;2024-03-22T11:05:29;3.73;;;3.00;;
85807;SDS011;76250;48.718;9.000;2024-03-22T11:08:03;3.43;;;3.13;;
85807;SDS011;76250;48.718;9.000;2024-03-22T11:10:31;3.63;;;3.33;;
85807;SDS011;76250;48.718;9.000;2024-03-22T11:13:01;3.77;;;3.47;;
85807;SDS011;76250;48.718;9.000;2024-03-22T11:15:33;2.97;;;2.77;;
85807;SDS011;76250;48.718;9.000;2024-03-22T11:18:01;3.00;;;2.80;;
85807;SDS011;76250;48.718;9.000;2024-03-22T11:20:27;3.87;;;3.50;;
85807;SDS011;76250;48.718;9.000;2024-03-22T11:22:55;3.13;;;2.83;;
85807;SDS011;76250;48.718;9.000;2024-03-22T11:25:22;2.77;;;2.57;;
85807;SDS011;76250;48.718;9.000;2024-03-22T11:27:49;2.70;;;2.50;;
85807;SDS011;76250;48.718;9.000;2024-03-22T11:30:19;2.97;;;2.70;;
85807;SDS011;76250;48.718;9.000;2024-03-22T11:32:46;2.90;;;2.70;;
85807;SDS011;76250;48.718;9.000;2024-03-22T11:35:13;2.40;;;2.30;;
85807;SDS011;76250;48.718;9.000;2024-03-22T11:37:39;2.67;;;2.43;;
85807;SDS011;76250;48.718;9.000;2024-03-22T11:40:11;2.77;;;2.57;;
85807;SDS011;76250;48.718;9.000;2024-03-22T11:42:39;2.60;;;2.40;;
85807;SDS011;76250;48.718;9.000;2024-03-22T11:45:08;2.70;;;2.37;;
85807;SDS011;76250;48.718;9.000;2024-03-22T11:47:37;3.30;;;2.97;;
85807;SDS011;76250;48.718;9.000;2024-03-22T11:50:04;4.00;;;2.97;;
85807;SDS011;76250;48.718;9.000;2024-03-22T11:52:31;2.80;;;2.60;;
85807;SDS011;76250;48.718;9.000;2024-03-22T11:54:58;2.80;;;2.60;;
85807;SDS011;76250;48.718;9.000;2024-03-22T11:57:25;2.90;;;2.60;;
85807;SDS011;76250;48.718;9.000;2024-03-22T11:59:52;3.20;;;2.90;;
85807;SDS011;76250;48.718;9.000;2024-03-22T12:02:26;2.83;;;2.63;;
85807;SDS011;76250;48.718;9.000;2024-03-22T12:04:53;2.90;;;2.70;;
85807;SDS011;76250;48.718;9.000;2024-03-22T12:07:20;2.40;;;2.20;;
85807;SDS011;76250;48.718;9.000;2024-03-22T12:09:48;2.30;;;2.20;;
85807;SDS011;76250;48.718;9.000;2024-03-22T12:12:15;2.47;;;2.27;;
85807;SDS011;76250;48.718;9.000;2024-03-22T12:14:42;2.77;;;2.57;;
85807;SDS011;76250;48.718;9.000;2024-03-22T12:17:09;3.27;;;2.77;;
85807;SDS011;76250;48.718;9.000;2024-03-22T12:19:35;3.07;;;2.77;;
85807;SDS011;76250;48.718;9.000;2024-03-22T12:22:02;2.80;;;2.60;;
85807;SDS011;76250;48.718;9.000;2024-03-22T12:24:29;2.60;;;2.40;;
85807;SDS011;76250;48.718;9.000;2024-03-22T12:26:59;2.90;;;2.70;;
85807;SDS011;76250;48.718;9.000;2024-03-22T12:29:26;3.80;;;3.20;;
85807;SDS011;76250;48.718;9.000;2024-03-22T12:31:53;2.50;;;2.30;;
85807;SDS011;76250;48.718;9.000;2024-03-22T12:34:20;2.57;;;2.37;;
85807;SDS011;76250;48.718;9.000;2024-03-22T12:36:47;2.77;;;2.50;;
85807;SDS011;76250;48.718;9.000;2024-03-22T12:39:14;2.40;;;2.23;;
85807;SDS011;76250;48.718;9.000;2024-03-22T12:41:40;2.50;;;2.30;;
85807;SDS011;76250;48.718;9.000;2024-03-22T12:44:07;2.53;;;2.33;;
85807;SDS011;76250;48.718;9.000;2024-03-22T12:46:34;3.47;;;2.57;;
85807;SDS011;76250;48.718;9.000;2024-03-22T12:49:01;2.90;;;2.70;;
85807;SDS011;76250;48.718;9.000;2024-03-22T12:51:27;3.20;;;2.90;;
85807;SDS011;76250;48.718;9.000;2024-03-22T12:53:54;3.03;;;2.83;;
85807;SDS011;76250;48.718;9.000;2024-03-22T12:56:21;2.90;;;2.70;;
85807;SDS011;76250;48.718;9.000;2024-03-22T12:58:48;3.10;;;2.60;;
85807;SDS011;76250;48.718;9.000;2024-03-22T13:01:15;2.87;;;2.67;;
85807;SDS011;76250;48.718;9.000;2024-03-22T13:03:42;4.23;;;3.50;;
85807;SDS011;76250;48.718;9.000;2024-03-22T13:06:09;3.43;;;2.60;;
85807;SDS011;76250;48.718;9.000;2024-03-22T13:08:36;3.03;;;2.83;;
85807;SDS011;76250;48.718;9.000;2024-03-22T13:11:04;2.87;;;2.53;;
85807;SDS011;76250;48.718;9.000;2024-03-22T13:13:35;2.73;;;2.53;;
85807;SDS011;76250;48.718;9.000;2024-03-22T13:16:02;2.50;;;2.30;;
85807;SDS011;76250;48.718;9.000;2024-03-22T13:18:29;3.27;;;2.70;;
85807;SDS011;76250;48.718;9.000;2024-03-22T13:20:56;2.77;;;2.57;;
85807;SDS011;76250;48.718;9.000;2024-03-22T13:23:23;2.73;;;2.53;;
85807;SDS011;76250;48.718;9.000;2024-03-22T13:25:50;2.47;;;2.27;;
85807;SDS011;76250;48.718;9.000;2024-03-22T13:28:18;2.83;;;2.53;;
85807;SDS011;76250;48.718;9.000;2024-03-22T13:30:47;2.70;;;2.47;;
85807;SDS011;76250;48.718;9.000;2024-03-22T13:33:15;2.40;;;2.30;;
85807;SDS011;76250;48.718;9.000;2024-03-22T13:35:44;2.93;;;2.73;;
85807;SDS011;76250;48.718;9.000;2024-03-22T13:38:11;2.50;;;2.30;;
85807;SDS011;76250;48.718;9.000;2024-03-22T13:40:40;2.77;;;2.57;;
85807;SDS011;76250;48.718;9.000;2024-03-22T13:43:07;2.60;;;2.40;;
85807;SDS011;76250;48.718;9.000;2024-03-22T13:45:38;2.83;;;2.63;;
85807;SDS011;76250;48.718;9.000;2024-03-22T13:48:10;2.53;;;2.33;;
85807;SDS011;76250;48.718;9.000;2024-03-22T13:50:38;2.63;;;2.43;;
85807;SDS011;76250;48.718;9.000;2024-03-22T13:53:05;2.70;;;2.50;;
85807;SDS011;76250;48.718;9.000;2024-03-22T13:55:33;2.67;;;2.40;;
85807;SDS011;76250;48.718;9.000;2024-03-22T13:58:00;2.27;;;2.10;;
85807;SDS011;76250;48.718;9.000;2024-03-22T14:00:27;2.47;;;2.27;;
85807;SDS011;76250;48.718;9.000;2024-03-22T14:02:54;2.37;;;2.00;;
85807;SDS011;76250;48.718;9.000;2024-03-22T14:05:22;3.10;;;2.60;;
85807;SDS011;76250;48.718;9.000;2024-03-22T14:07:50;3.57;;;2.17;;
85807;SDS011;76250;48.718;9.000;2024-03-22T14:10:17;2.13;;;2.03;;
85807;SDS011;76250;48.718;9.000;2024-03-22T14:12:45;2.37;;;2.20;;
85807;SDS011;76250;48.718;9.000;2024-03-22T14:15:13;2.13;;;1.90;;
85807;SDS011;76250;48.718;9.000;2024-03-22T14:17:40;1.90;;;1.80;;
85807;SDS011;76250;48.718;9.000;2024-03-22T14:20:06;1.80;;;1.70;;
85807;SDS011;76250;48.718;9.000;2024-03-22T14:22:38;1.83;;;1.73;;
85807;SDS011;76250;48.718;9.000;2024-03-22T14:25:06;2.07;;;1.97;;
85807;SDS011;76250;48.718;9.000;2024-03-22T14:27:34;1.87;;;1.70;;
85807;SDS011;76250;48.718;9.000;2024-03-22T14:30:02;2.10;;;2.00;;
85807;SDS011;76250;48.718;9.000;2024-03-22T14:32:33;2.10;;;2.00;;
85807;SDS011;76250;48.718;9.000;2024-03-22T14:35:01;1.87;;;1.77;;
85807;SDS011;76250;48.718;9.000;2024-03-22T14:37:27;1.50;;;1.40;;
85807;SDS011;76250;48.718;9.000;2024-03-22T14:39:54;2.13;;;1.77;;
85807;SDS011;76250;48.718;9.000;2024-03-22T14:42:21;1.50;;;1.40;;
85807;SDS011;76250;48.718;9.000;2024-03-22T14:44:48;2.30;;;1.90;;
85807;SDS011;76250;48.718;9.000;2024-03-22T14:47:14;1.70;;;1.60;;
85807;SDS011;76250;48.718;9.000;2024-03-22T14:49:41;1.70;;;1.60;;
85807;SDS011;76250;48.718;9.000;2024-03-22T14:52:08;1.70;;;1.60;;
85807;SDS011;76250;48.718;9.000;2024-03-22T14:54:35;1.70;;;1.60;;
85807;SDS011;76250;48.718;9.000;2024-03-22T14:57:02;1.20;;;1.20;;